Time;durP1;ratioP1;P1;durP2;ratioP2;P2;SDS_P1;SDS_P2;PMS_P1;PMS_P2;Temp;Humidity;BMP_temperature;BMP_pressure;BME280_temperature;BME280_humidity;BME280_pressure;Samples;Min_cycle;Max_cycle;Signal;HPM_P1;HPM_P2
2021/12/03 00:00:45;;;;;;;22.58;14.20;;;3.30;91.40;;;;;;5054679;28;20029;-69
2021/12/03 00:03:11;;;;;;;24.58;15.65;;;3.40;91.50;;;;;;5054441;28;20075;-69
2021/12/03 00:05:37;;;;;;;24.08;15.02;;;3.40;91.50;;;;;;5053852;28;20400;-69
2021/12/03 00:08:03;;;;;;;24.65;15.25;;;3.40;91.50;;;;;;5054185;28;20020;-69
2021/12/03 00:10:29;;;;;;;24.60;14.55;;;3.50;91.60;;;;;;5054136;28;20442;-69
2021/12/03 00:12:56;;;;;;;21.83;13.90;;;3.40;91.50;;;;;;5054092;28;20047;-69
2021/12/03 00:15:23;;;;;;;23.80;14.20;;;3.40;91.50;;;;;;5054153;28;20439;-69
2021/12/03 00:17:50;;;;;;;19.77;12.95;;;3.40;91.50;;;;;;5054010;28;20033;-68
2021/12/03 00:20:17;;;;;;;19.75;13.18;;;3.40;91.60;;;;;;5053929;28;20033;-69
2021/12/03 00:22:49;;;;;;;18.80;12.90;;;3.40;91.50;;;;;;5053938;28;20029;-69
2021/12/03 00:25:15;;;;;;;20.50;12.80;;;3.40;91.50;;;;;;5053707;28;20040;-68
2021/12/03 00:27:42;;;;;;;20.92;13.27;;;3.40;91.50;;;;;;5053762;28;20171;-68
2021/12/03 00:30:10;;;;;;;18.88;12.13;;;3.40;91.40;;;;;;5053812;28;20086;-68
2021/12/03 00:32:36;;;;;;;19.20;12.70;;;3.40;91.40;;;;;;5053753;28;20032;-69
2021/12/03 00:35:04;;;;;;;19.92;12.77;;;3.40;91.40;;;;;;5054095;28;20029;-68
2021/12/03 00:37:30;;;;;;;20.98;12.13;;;3.40;91.50;;;;;;5053977;28;20407;-68
2021/12/03 00:39:55;;;;;;;17.13;11.60;;;3.40;91.50;;;;;;5063041;28;20029;-69
2021/12/03 00:42:21;;;;;;;19.05;12.32;;;3.40;91.50;;;;;;5053728;28;20032;-69
2021/12/03 00:44:52;;;;;;;16.33;11.55;;;3.30;91.50;;;;;;5053940;28;20025;-69
2021/12/03 00:47:19;;;;;;;17.33;11.30;;;3.30;91.50;;;;;;5053741;28;20021;-69
2021/12/03 00:49:45;;;;;;;16.13;11.07;;;3.30;91.50;;;;;;5053390;28;20049;-70
2021/12/03 00:52:11;;;;;;;19.55;12.15;;;3.30;91.50;;;;;;5053407;28;20025;-69
2021/12/03 00:54:37;;;;;;;18.88;11.35;;;3.30;91.50;;;;;;5053268;28;20021;-69
2021/12/03 00:57:03;;;;;;;17.77;11.00;;;3.30;91.50;;;;;;5053230;28;20076;-69
2021/12/03 00:59:29;;;;;;;17.42;11.25;;;3.30;91.50;;;;;;5052013;28;20111;-69
2021/12/03 01:01:55;;;;;;;16.75;11.98;;;3.30;91.60;;;;;;5053112;28;20429;-69
2021/12/03 01:04:21;;;;;;;17.98;12.18;;;3.30;91.60;;;;;;5053405;28;20029;-69
2021/12/03 01:06:47;;;;;;;17.20;11.63;;;3.30;91.60;;;;;;5053233;28;20048;-69
2021/12/03 01:09:13;;;;;;;19.13;11.95;;;3.30;91.60;;;;;;5053073;28;20117;-70
2021/12/03 01:11:39;;;;;;;16.52;11.25;;;3.30;91.70;;;;;;5052972;28;20590;-69
2021/12/03 01:14:05;;;;;;;19.95;11.52;;;3.30;91.60;;;;;;5052942;28;20067;-69
2021/12/03 01:16:32;;;;;;;17.60;12.10;;;3.30;91.60;;;;;;5052842;28;20028;-68
2021/12/03 01:18:58;;;;;;;16.52;11.70;;;3.20;91.50;;;;;;5052884;28;20428;-71
2021/12/03 01:21:25;;;;;;;16.80;11.80;;;3.20;91.60;;;;;;5052827;28;20052;-69
2021/12/03 01:23:51;;;;;;;19.20;12.27;;;3.20;91.50;;;;;;5052864;28;20121;-68
2021/12/03 01:26:19;;;;;;;15.73;11.48;;;3.20;91.60;;;;;;5052654;28;20033;-69
2021/12/03 01:28:45;;;;;;;18.27;12.00;;;3.20;91.70;;;;;;5052515;28;20382;-69
2021/12/03 01:31:12;;;;;;;17.40;11.40;;;3.10;91.80;;;;;;5051452;28;20445;-69
2021/12/03 01:33:38;;;;;;;20.80;12.27;;;3.20;91.80;;;;;;5052609;28;20118;-69
2021/12/03 01:36:04;;;;;;;21.10;13.32;;;3.30;91.70;;;;;;5052583;28;20021;-69
2021/12/03 01:38:30;;;;;;;18.77;12.98;;;3.30;91.70;;;;;;5052346;28;20116;-69
2021/12/03 01:40:56;;;;;;;20.67;13.52;;;3.30;91.60;;;;;;5052631;28;20057;-69
2021/12/03 01:43:24;;;;;;;19.38;13.25;;;3.30;91.60;;;;;;5052025;28;20028;-69
2021/12/03 01:45:59;;;;;;;19.55;13.45;;;3.30;91.60;;;;;;5052367;28;20025;-69
2021/12/03 01:48:26;;;;;;;23.30;15.13;;;3.30;91.60;;;;;;5052170;28;20029;-69
2021/12/03 01:50:52;;;;;;;27.60;18.10;;;3.30;91.60;;;;;;5052241;28;20549;-69
2021/12/03 01:53:21;;;;;;;33.33;20.80;;;3.30;91.60;;;;;;5052286;28;20025;-69
2021/12/03 01:55:48;;;;;;;28.90;19.10;;;3.30;91.60;;;;;;5052516;28;20025;-69
2021/12/03 01:58:15;;;;;;;24.85;15.65;;;3.30;91.70;;;;;;5052369;28;20712;-69
2021/12/03 02:00:54;;;;;;;22.42;14.43;;;3.30;91.80;;;;;;5052582;28;20032;-70
2021/12/03 02:03:26;;;;;;;23.13;14.52;;;3.30;91.80;;;;;;5052182;28;20013;-68
2021/12/03 02:05:53;;;;;;;23.42;15.80;;;3.40;91.80;;;;;;5051934;28;20045;-69
2021/12/03 02:08:19;;;;;;;26.60;16.65;;;3.40;91.70;;;;;;5052015;28;20071;-69
2021/12/03 02:10:45;;;;;;;23.08;15.30;;;3.40;91.60;;;;;;5052048;28;20156;-69
2021/12/03 02:13:13;;;;;;;24.73;14.80;;;3.50;91.50;;;;;;5052184;28;20071;-69
2021/12/03 02:15:40;;;;;;;25.02;14.80;;;3.40;91.50;;;;;;5052043;28;20028;-69
2021/12/03 02:18:06;;;;;;;22.42;15.43;;;3.50;91.50;;;;;;5051852;28;20024;-69
2021/12/03 02:20:32;;;;;;;25.92;16.25;;;3.40;91.60;;;;;;5051680;28;20052;-69
2021/12/03 02:22:59;;;;;;;23.70;16.52;;;3.50;91.50;;;;;;5051867;28;20099;-69
2021/12/03 02:25:26;;;;;;;26.83;17.40;;;3.40;91.50;;;;;;5051677;28;20025;-68
2021/12/03 02:27:55;;;;;;;29.25;20.60;;;3.40;91.50;;;;;;5070456;28;20487;-69
2021/12/03 02:30:22;;;;;;;28.60;20.50;;;3.40;91.60;;;;;;5071609;28;20456;-69
2021/12/03 02:32:49;;;;;;;32.90;22.73;;;3.30;91.50;;;;;;5071643;28;20025;-68
2021/12/03 02:35:16;;;;;;;31.38;21.80;;;3.30;91.60;;;;;;5071639;28;20081;-69
2021/12/03 02:37:42;;;;;;;31.85;21.42;;;3.30;91.60;;;;;;5071437;28;20017;-69
2021/12/03 02:40:09;;;;;;;29.77;21.02;;;3.30;91.60;;;;;;5070304;28;20510;-69
2021/12/03 02:42:35;;;;;;;31.05;20.75;;;3.30;91.70;;;;;;5071568;28;20032;-69
2021/12/03 02:45:03;;;;;;;30.27;19.10;;;3.30;91.70;;;;;;5070230;28;20387;-69
2021/12/03 02:47:28;;;;;;;27.40;17.42;;;3.30;91.60;;;;;;5070107;28;20383;-68
2021/12/03 02:49:54;;;;;;;26.60;17.48;;;3.20;91.60;;;;;;5071317;28;20112;-69
2021/12/03 02:52:20;;;;;;;29.83;17.55;;;3.20;91.70;;;;;;5070266;28;20107;-68
2021/12/03 02:54:45;;;;;;;27.08;17.73;;;3.10;91.80;;;;;;5071385;28;20020;-68
2021/12/03 02:57:11;;;;;;;27.67;18.27;;;3.20;92.00;;;;;;5074356;28;20463;-68
2021/12/03 02:59:37;;;;;;;26.08;17.13;;;3.20;92.10;;;;;;5075507;28;20024;-68
2021/12/03 03:02:03;;;;;;;27.25;18.02;;;3.10;92.00;;;;;;5075442;28;20117;-68
2021/12/03 03:04:29;;;;;;;30.13;20.38;;;3.10;92.00;;;;;;5075422;28;20036;-69
2021/12/03 03:06:54;;;;;;;30.17;20.63;;;3.20;92.10;;;;;;5075188;28;20044;-69
2021/12/03 03:09:20;;;;;;;30.42;21.60;;;3.20;92.10;;;;;;5075119;28;20031;-69
2021/12/03 03:11:46;;;;;;;27.85;20.55;;;3.20;92.00;;;;;;5075295;28;20027;-68
2021/12/03 03:14:13;;;;;;;27.30;19.58;;;3.20;92.00;;;;;;5075380;28;20383;-69
2021/12/03 03:16:38;;;;;;;27.08;20.48;;;3.10;92.00;;;;;;5075403;28;20771;-68
2021/12/03 03:19:17;;;;;;;29.17;19.73;;;3.10;92.10;;;;;;5075172;28;20116;-69
2021/12/03 03:21:44;;;;;;;29.38;19.38;;;3.10;92.10;;;;;;5075023;28;20114;-68
2021/12/03 03:24:10;;;;;;;26.30;16.98;;;3.20;92.30;;;;;;5075045;28;20028;-68
2021/12/03 03:26:39;;;;;;;25.08;17.45;;;3.20;92.30;;;;;;5074887;28;20036;-69
2021/12/03 03:29:07;;;;;;;23.02;15.77;;;3.20;92.20;;;;;;5074970;28;20025;-70
2021/12/03 03:31:35;;;;;;;25.63;16.48;;;3.20;92.20;;;;;;5074826;28;20031;-69
2021/12/03 03:34:02;;;;;;;28.63;17.65;;;3.20;92.10;;;;;;5074829;28;20074;-69
2021/12/03 03:36:32;;;;;;;27.77;17.60;;;3.20;92.30;;;;;;5074753;28;20035;-69
2021/12/03 03:38:57;;;;;;;28.05;18.63;;;3.20;92.30;;;;;;5074785;28;20035;-70
2021/12/03 03:41:23;;;;;;;36.00;23.50;;;3.20;92.20;;;;;;5074534;28;20402;-69
2021/12/03 03:43:49;;;;;;;37.65;25.70;;;3.20;92.10;;;;;;5074679;28;20411;-69
2021/12/03 03:46:14;;;;;;;34.45;23.40;;;3.20;92.20;;;;;;5074550;28;20024;-68
2021/12/03 03:48:40;;;;;;;39.55;24.42;;;3.10;92.20;;;;;;5073335;28;20035;-68
2021/12/03 03:51:06;;;;;;;36.72;22.80;;;3.20;92.20;;;;;;5074598;28;20095;-69
2021/12/03 03:53:32;;;;;;;33.05;21.33;;;3.20;92.40;;;;;;5074641;28;20107;-69
2021/12/03 03:55:57;;;;;;;29.23;19.33;;;3.20;92.70;;;;;;5074618;28;20078;-69
2021/12/03 03:58:23;;;;;;;30.17;19.02;;;3.30;92.40;;;;;;5074594;28;20074;-70
2021/12/03 04:00:49;;;;;;;40.85;30.80;;;3.30;92.20;;;;;;5074410;28;20021;-69
2021/12/03 04:03:15;;;;;;;40.25;30.20;;;3.30;92.10;;;;;;5074354;28;20024;-69
2021/12/03 04:05:41;;;;;;;35.38;26.13;;;3.30;92.20;;;;;;5072953;28;20507;-70
2021/12/03 04:08:07;;;;;;;32.95;21.85;;;3.40;92.10;;;;;;5073647;28;20380;-69
2021/12/03 04:10:34;;;;;;;35.10;22.30;;;3.40;92.50;;;;;;5074203;28;20096;-68
2021/12/03 04:12:59;;;;;;;36.47;22.55;;;3.40;92.10;;;;;;5074692;28;20104;-69
2021/12/03 04:15:25;;;;;;;38.08;24.02;;;3.40;92.00;;;;;;5067412;28;20043;-69
2021/12/03 04:17:51;;;;;;;40.47;23.83;;;3.50;92.00;;;;;;5052958;28;20119;-69
2021/12/03 04:20:19;;;;;;;38.42;23.02;;;3.50;91.80;;;;;;5054017;28;20029;-69
2021/12/03 04:22:45;;;;;;;39.17;23.20;;;3.50;91.70;;;;;;5053390;28;20053;-70
2021/12/03 04:25:17;;;;;;;40.17;26.60;;;3.50;91.80;;;;;;5053500;28;20052;-68
2021/12/03 04:27:44;;;;;;;35.78;23.67;;;3.50;91.60;;;;;;5053701;28;20107;-69
2021/12/03 04:30:23;;;;;;;34.88;22.63;;;3.50;91.50;;;;;;5052057;28;20082;-70
2021/12/03 04:32:49;;;;;;;31.33;20.75;;;3.50;91.50;;;;;;5052198;28;20435;-69
2021/12/03 04:35:14;;;;;;;29.27;18.77;;;3.50;91.40;;;;;;5053379;28;20067;-69
2021/12/03 04:37:40;;;;;;;31.30;19.10;;;3.60;91.10;;;;;;5053439;28;20024;-69
2021/12/03 04:40:08;;;;;;;29.77;18.13;;;3.70;90.70;;;;;;5053472;28;20086;-70
2021/12/03 04:42:34;;;;;;;26.60;16.70;;;3.70;90.70;;;;;;5051315;28;20063;-69
2021/12/03 04:45:00;;;;;;;23.98;15.50;;;3.70;90.70;;;;;;5053477;28;20441;-68
2021/12/03 04:47:26;;;;;;;23.40;13.90;;;3.70;90.60;;;;;;5051949;28;20049;-69
2021/12/03 04:49:51;;;;;;;24.85;14.10;;;3.80;90.30;;;;;;5053209;28;20029;-69
2021/12/03 04:52:17;;;;;;;21.05;13.85;;;3.80;90.00;;;;;;5053187;28;20041;-69
2021/12/03 04:54:43;;;;;;;22.10;14.45;;;3.90;90.00;;;;;;5053348;28;20029;-70
2021/12/03 04:57:09;;;;;;;20.45;13.18;;;3.90;89.80;;;;;;5053232;28;20021;-69
2021/12/03 04:59:35;;;;;;;21.88;13.82;;;3.80;89.70;;;;;;5053154;28;20027;-69
2021/12/03 05:02:01;;;;;;;19.95;13.25;;;3.80;89.70;;;;;;5053314;28;20349;-68
2021/12/03 05:04:26;;;;;;;22.13;13.02;;;3.80;89.70;;;;;;5053318;28;20479;-69
2021/12/03 05:09:38;;;;;;;25.25;13.88;;;3.70;89.90;;;;;;5041379;28;20048;-69
2021/12/03 05:12:05;;;;;;;23.83;14.35;;;3.80;89.70;;;;;;5052812;28;20106;-70
2021/12/03 05:14:31;;;;;;;22.95;14.93;;;3.80;89.50;;;;;;5052882;28;20050;-70
2021/12/03 05:16:58;;;;;;;25.00;16.80;;;3.80;89.40;;;;;;5052734;28;20116;-70
2021/12/03 05:19:24;;;;;;;27.63;18.02;;;3.80;89.20;;;;;;5051773;28;20025;-70
2021/12/03 05:21:50;;;;;;;27.33;18.48;;;3.80;89.10;;;;;;5052600;28;20033;-70
2021/12/03 05:24:17;;;;;;;28.60;18.58;;;3.80;89.30;;;;;;5052552;28;20028;-70
2021/12/03 05:26:44;;;;;;;27.85;19.05;;;3.80;89.10;;;;;;5052444;28;20017;-68
2021/12/03 05:29:12;;;;;;;30.45;19.02;;;3.80;89.30;;;;;;5052515;28;20423;-70
2021/12/03 05:31:39;;;;;;;25.63;17.45;;;3.80;89.30;;;;;;5052354;28;20067;-70
2021/12/03 05:34:05;;;;;;;27.15;16.90;;;3.80;89.30;;;;;;5052273;28;20056;-70
2021/12/03 05:36:31;;;;;;;27.50;16.83;;;3.80;89.00;;;;;;5052283;28;20431;-69
2021/12/03 05:38:57;;;;;;;26.45;16.30;;;3.80;89.00;;;;;;5052308;28;20029;-69
2021/12/03 05:41:23;;;;;;;27.27;16.83;;;3.80;88.90;;;;;;5052168;28;20035;-69
2021/12/03 05:43:48;;;;;;;28.85;17.33;;;3.80;89.00;;;;;;5051975;28;20487;-69
2021/12/03 05:46:14;;;;;;;29.42;18.67;;;3.80;89.10;;;;;;5051909;28;20029;-70
2021/12/03 05:48:40;;;;;;;32.83;20.90;;;3.80;89.10;;;;;;5051834;28;20036;-69
2021/12/03 05:51:06;;;;;;;32.65;21.05;;;3.80;89.00;;;;;;5052117;28;20106;-70
2021/12/03 05:53:33;;;;;;;36.13;21.20;;;3.80;89.20;;;;;;5052074;28;20025;-70
2021/12/03 05:56:00;;;;;;;35.72;20.92;;;3.80;89.30;;;;;;5052034;28;20021;-70
2021/12/03 05:58:25;;;;;;;37.03;20.92;;;3.70;89.30;;;;;;5052016;28;20025;-68
2021/12/03 06:00:51;;;;;;;34.50;20.85;;;3.70;89.30;;;;;;5050545;28;20036;-70
2021/12/03 06:03:17;;;;;;;34.15;20.75;;;3.70;89.50;;;;;;5055191;28;20456;-69
2021/12/03 06:05:43;;;;;;;30.83;19.67;;;3.70;89.50;;;;;;5051733;28;20037;-69
2021/12/03 06:08:09;;;;;;;31.67;19.10;;;3.70;89.50;;;;;;5051909;28;20086;-69
2021/12/03 06:10:36;;;;;;;33.17;20.25;;;3.70;89.60;;;;;;5052171;28;20028;-68
2021/12/03 06:13:02;;;;;;;28.95;18.25;;;3.70;89.60;;;;;;5052212;28;20044;-70
2021/12/03 06:15:28;;;;;;;33.65;20.20;;;3.70;89.80;;;;;;5050596;28;20067;-70
2021/12/03 06:17:54;;;;;;;38.88;24.00;;;3.70;90.00;;;;;;5051596;28;20441;-71
2021/12/03 06:20:20;;;;;;;44.58;24.15;;;3.70;89.90;;;;;;5050581;28;20120;-70
2021/12/03 06:22:46;;;;;;;44.58;25.08;;;3.80;90.00;;;;;;5051625;28;20029;-70
2021/12/03 06:25:13;;;;;;;44.55;24.83;;;3.70;90.00;;;;;;5051547;28;20498;-70
2021/12/03 06:27:39;;;;;;;51.88;28.30;;;3.80;90.00;;;;;;5051682;28;20060;-71
2021/12/03 06:30:07;;;;;;;53.90;28.48;;;3.80;90.10;;;;;;5051124;28;20104;-69
2021/12/03 06:32:34;;;;;;;50.53;29.40;;;3.80;90.00;;;;;;5051072;28;20360;-70
2021/12/03 06:34:59;;;;;;;52.58;30.20;;;3.90;90.00;;;;;;5051524;28;20059;-70
2021/12/03 06:37:25;;;;;;;50.33;28.20;;;3.90;90.00;;;;;;5051489;28;20025;-69
2021/12/03 06:39:51;;;;;;;53.78;30.80;;;3.90;90.00;;;;;;5051436;28;20119;-69
2021/12/03 06:42:16;;;;;;;52.30;30.10;;;3.90;90.00;;;;;;5051385;28;20021;-70
2021/12/03 06:44:42;;;;;;;47.80;27.20;;;4.00;90.10;;;;;;5050045;28;20112;-69
2021/12/03 06:47:08;;;;;;;43.65;27.58;;;4.00;90.10;;;;;;5051317;28;20371;-70
2021/12/03 06:49:34;;;;;;;42.92;24.80;;;4.00;90.10;;;;;;5050926;28;20460;-69
2021/12/03 06:52:04;;;;;;;35.40;21.30;;;4.10;90.20;;;;;;5051138;28;20028;-69
2021/12/03 06:54:32;;;;;;;32.17;20.80;;;4.20;90.30;;;;;;5051231;28;20352;-69
2021/12/03 06:57:00;;;;;;;30.40;19.75;;;4.30;90.20;;;;;;5051233;28;20024;-69
2021/12/03 06:59:26;;;;;;;35.30;23.73;;;4.30;90.20;;;;;;5051280;28;20033;-70
2021/12/03 07:01:52;;;;;;;41.50;31.60;;;4.40;90.20;;;;;;5051225;28;20029;-70
2021/12/03 07:04:18;;;;;;;34.10;26.77;;;4.50;90.20;;;;;;5052444;28;20032;-69
2021/12/03 07:06:44;;;;;;;33.63;23.75;;;4.60;90.10;;;;;;5070473;28;20060;-68
2021/12/03 07:09:11;;;;;;;25.40;17.50;;;4.60;90.10;;;;;;5069232;28;20415;-70
2021/12/03 07:11:37;;;;;;;23.75;16.08;;;4.70;90.10;;;;;;5070281;28;20471;-68
2021/12/03 07:14:03;;;;;;;22.98;16.10;;;4.80;90.20;;;;;;5063870;28;20040;-69
2021/12/03 07:16:29;;;;;;;20.63;14.57;;;4.80;90.20;;;;;;5065201;28;20074;-70
2021/12/03 07:18:55;;;;;;;21.92;14.73;;;4.90;90.30;;;;;;5065204;28;20025;-69
2021/12/03 07:21:21;;;;;;;21.65;14.85;;;5.00;90.00;;;;;;5050992;28;20123;-69
2021/12/03 07:23:49;;;;;;;19.27;14.10;;;5.10;90.00;;;;;;5058205;28;20028;-68
2021/12/03 07:26:15;;;;;;;20.92;15.32;;;5.20;90.00;;;;;;5062292;28;20033;-68
2021/12/03 07:28:41;;;;;;;25.35;16.95;;;5.20;90.00;;;;;;5063042;28;20037;-69
2021/12/03 07:31:07;;;;;;;23.88;17.05;;;5.30;90.10;;;;;;5052553;28;20039;-68
2021/12/03 07:33:33;;;;;;;26.60;18.52;;;5.30;90.20;;;;;;5060743;28;20471;-68
2021/12/03 07:35:59;;;;;;;27.27;19.77;;;5.50;90.10;;;;;;5070433;28;20720;-68
2021/12/03 07:38:25;;;;;;;25.75;17.73;;;5.50;90.00;;;;;;5070676;28;20052;-68
2021/12/03 07:40:51;;;;;;;29.63;19.40;;;5.50;90.10;;;;;;5070942;28;20021;-69
2021/12/03 07:43:17;;;;;;;30.73;20.23;;;5.60;90.10;;;;;;5073384;28;20031;-69
2021/12/03 07:45:47;;;;;;;27.40;19.10;;;5.60;90.20;;;;;;5073452;28;20483;-69
2021/12/03 07:48:13;;;;;;;29.40;21.13;;;5.70;90.20;;;;;;5074690;28;20100;-69
2021/12/03 07:50:41;;;;;;;28.42;20.45;;;5.80;90.30;;;;;;5074801;28;20434;-69
2021/12/03 07:53:09;;;;;;;28.10;20.23;;;5.90;90.30;;;;;;5072662;28;20025;-69
2021/12/03 07:55:35;;;;;;;25.27;18.40;;;5.90;90.40;;;;;;5074223;28;20070;-69
2021/12/03 07:58:04;;;;;;;23.92;17.45;;;6.10;90.30;;;;;;5074225;28;20448;-68
2021/12/03 08:00:30;;;;;;;23.73;17.10;;;6.10;90.40;;;;;;5070759;28;20024;-68
2021/12/03 08:02:56;;;;;;;22.02;15.25;;;6.30;90.50;;;;;;5075429;28;20059;-69
2021/12/03 08:05:21;;;;;;;20.90;14.43;;;6.30;90.60;;;;;;5074440;28;20084;-69
2021/12/03 08:07:49;;;;;;;20.55;15.00;;;6.30;90.70;;;;;;5074023;28;20020;-69
2021/12/03 08:10:15;;;;;;;22.45;15.90;;;6.60;90.40;;;;;;5073937;28;20541;-69
2021/12/03 08:12:45;;;;;;;22.58;16.13;;;6.60;90.50;;;;;;5074076;28;20020;-70
2021/12/03 08:15:12;;;;;;;21.35;16.40;;;6.70;90.50;;;;;;5073993;28;20850;-69
2021/12/03 08:17:39;;;;;;;23.13;16.13;;;6.80;90.60;;;;;;5073998;28;20776;-70
2021/12/03 08:20:06;;;;;;;20.95;15.68;;;6.90;90.70;;;;;;5073674;28;20028;-69
2021/12/03 08:22:32;;;;;;;24.00;16.63;;;7.00;90.60;;;;;;5070104;28;20043;-68
2021/12/03 08:24:58;;;;;;;21.85;16.50;;;7.10;90.40;;;;;;5073764;28;20024;-69
2021/12/03 08:27:23;;;;;;;21.92;16.08;;;7.10;90.50;;;;;;5073847;28;20089;-69
2021/12/03 08:29:49;;;;;;;22.23;16.08;;;7.20;90.40;;;;;;5073454;28;20376;-68
2021/12/03 08:32:15;;;;;;;25.08;16.50;;;7.40;90.10;;;;;;5073942;28;20017;-69
2021/12/03 08:34:40;;;;;;;24.38;17.13;;;7.40;90.20;;;;;;5072281;28;20535;-71
2021/12/03 08:37:08;;;;;;;21.55;16.70;;;7.60;90.00;;;;;;5073088;28;20363;-70
2021/12/03 08:39:34;;;;;;;23.30;17.42;;;7.70;89.40;;;;;;5069676;28;20433;-71
2021/12/03 08:42:01;;;;;;;25.65;17.52;;;7.80;89.10;;;;;;5070802;28;20039;-69
2021/12/03 08:44:27;;;;;;;23.88;17.60;;;7.90;89.40;;;;;;5073402;28;20028;-69
2021/12/03 08:47:02;;;;;;;25.20;17.85;;;8.00;89.40;;;;;;5073267;28;20033;-69
2021/12/03 08:49:31;;;;;;;23.95;16.42;;;8.20;89.60;;;;;;5073148;28;20035;-69
2021/12/03 08:57:12;;;;;;;18.65;14.40;;;8.70;88.10;;;;;;5074411;28;20102;-69
2021/12/03 08:59:37;;;;;;;20.38;13.68;;;9.00;88.00;;;;;;5071991;28;20834;-69
2021/12/03 09:02:03;;;;;;;20.70;13.95;;;9.30;87.50;;;;;;5072376;28;20130;-70
2021/12/03 09:04:29;;;;;;;21.20;14.00;;;9.80;85.80;;;;;;5072867;28;20089;-69
2021/12/03 09:06:57;;;;;;;20.08;13.25;;;10.30;82.90;;;;;;5072874;28;20048;-69
2021/12/03 09:09:23;;;;;;;20.05;13.90;;;10.70;81.20;;;;;;5072411;28;20035;-69
2021/12/03 09:11:49;;;;;;;19.17;11.82;;;11.00;79.10;;;;;;5072658;28;20027;-68
2021/12/03 09:16:53;;;;;;;16.73;11.23;;;11.70;76.00;;;;;;5073553;28;20834;-70
2021/12/03 09:19:25;;;;;;;14.15;10.23;;;11.90;75.00;;;;;;5072654;28;20035;-69
2021/12/03 09:21:51;;;;;;;14.88;10.15;;;12.00;74.50;;;;;;5071664;28;20040;-70
2021/12/03 09:24:19;;;;;;;14.75;9.65;;;12.20;73.90;;;;;;5072909;28;20029;-68
2021/12/03 09:26:45;;;;;;;15.85;10.13;;;12.50;73.00;;;;;;5071335;28;20020;-68
2021/12/03 09:29:14;;;;;;;15.40;10.60;;;12.70;73.10;;;;;;5072452;28;20035;-70
2021/12/03 09:31:42;;;;;;;14.27;9.90;;;13.00;72.30;;;;;;5066112;28;20376;-70
2021/12/03 09:34:10;;;;;;;13.68;9.98;;;13.30;69.60;;;;;;5067434;28;20021;-68
2021/12/03 09:36:41;;;;;;;16.13;9.90;;;13.40;68.70;;;;;;5071572;28;20146;-68
2021/12/03 09:39:23;;;;;;;17.38;10.57;;;13.20;69.90;;;;;;5070201;28;20379;-69
2021/12/03 09:41:52;;;;;;;14.52;10.60;;;13.00;69.40;;;;;;5072306;28;20029;-67
2021/12/03 09:44:19;;;;;;;14.55;10.20;;;12.70;69.80;;;;;;5072162;28;20024;-67
2021/12/03 09:46:46;;;;;;;15.45;10.55;;;12.40;70.40;;;;;;5072402;28;20039;-68
2021/12/03 09:54:26;;;;;;;15.38;10.00;;;12.30;73.80;;;;;;5066296;28;20028;-69
2021/12/03 09:56:57;;;;;;;;;;;12.70;72.40;;;;;;5070897;28;20422;-71
2021/12/03 10:13:25;;;;;;;13.98;8.50;;;12.90;69.90;;;;;;5059742;28;20059;-69
2021/12/03 10:16:15;;;;;;;13.98;7.97;;;13.10;69.90;;;;;;5072061;28;20487;-70
2021/12/03 10:39:51;;;;;;;13.85;7.20;;;14.70;62.60;;;;;;5060771;28;20112;-70
2021/12/03 10:58:47;;;;;;;10.93;6.20;;;13.00;69.00;;;;;;5059210;28;20028;-70
2021/12/03 11:07:39;;;;;;;13.10;7.45;;;12.40;71.20;;;;;;5071373;28;20098;-70
2021/12/03 11:31:22;;;;;;;10.85;6.15;;;13.00;69.50;;;;;;5060803;28;20032;-72
2021/12/03 11:48:37;;;;;;;10.77;6.90;;;12.40;71.00;;;;;;5055150;28;20159;-70
2021/12/03 11:54:30;;;;;;;11.25;6.60;;;12.20;71.30;;;;;;5054929;28;20411;-70
2021/12/03 12:06:26;;;;;;;13.07;6.93;;;11.60;72.80;;;;;;5054505;28;20043;-73
2021/12/03 13:04:10;;;;;;;10.60;5.82;;;11.40;64.10;;;;;;5073190;28;20036;-70
2021/12/03 14:05:30;;;;;;;13.43;9.05;;;8.40;70.20;;;;;;5071513;28;20562;-72
2021/12/03 14:37:57;;;;;;;21.42;15.48;;;7.50;72.40;;;;;;5071651;28;20524;-70
2021/12/03 14:46:13;;;;;;;28.20;20.00;;;7.00;72.60;;;;;;5071540;28;20027;-69
2021/12/03 14:56:37;;;;;;;30.00;21.30;;;6.40;74.70;;;;;;5078439;28;20077;-70
2021/12/03 14:59:22;;;;;;;30.67;20.35;;;6.30;74.80;;;;;;5078192;28;20021;-71
2021/12/03 15:01:58;;;;;;;28.45;20.48;;;6.20;75.30;;;;;;5074843;28;20029;-69
2021/12/03 15:09:41;;;;;;;41.65;26.17;;;6.00;76.30;;;;;;5078302;28;20039;-69
2021/12/03 15:20:48;;;;;;;40.55;24.98;;;6.00;77.00;;;;;;5067547;28;20031;-69
2021/12/03 15:26:04;;;;;;;49.55;25.25;;;5.70;78.40;;;;;;5058001;28;20074;-71
2021/12/03 15:28:53;;;;;;;42.80;25.42;;;5.50;78.70;;;;;;5056841;28;20175;-70
2021/12/03 15:31:34;;;;;;;43.97;24.33;;;5.20;79.50;;;;;;5065136;28;20024;-70
2021/12/03 15:34:10;;;;;;;46.08;24.27;;;5.10;80.40;;;;;;5057731;28;20090;-70
2021/12/03 15:39:13;;;;;;;43.10;24.08;;;4.70;82.10;;;;;;5057761;28;20087;-70
2021/12/03 16:08:24;;;;;;;16.02;10.60;;;3.80;85.00;;;;;;5054143;28;20047;-70
2021/12/03 16:11:14;;;;;;;17.52;11.20;;;3.70;85.20;;;;;;5054048;28;20029;-71
2021/12/03 16:13:51;;;;;;;13.20;9.85;;;3.70;85.60;;;;;;5054250;28;20022;-69
2021/12/03 16:27:14;;;;;;;11.25;8.73;;;3.40;86.60;;;;;;5016063;28;20476;-70
2021/12/03 16:54:19;;;;;;;11.75;7.72;;;2.90;89.00;;;;;;5031339;28;20034;-70
2021/12/03 16:56:52;;;;;;;9.98;7.70;;;2.90;89.20;;;;;;5014374;28;20022;-69
2021/12/03 16:59:18;;;;;;;12.40;8.85;;;2.80;89.30;;;;;;5033113;28;20123;-71
2021/12/03 17:48:00;;;;;;;14.27;9.55;;;2.50;90.70;;;;;;5052311;28;20430;-68
2021/12/03 17:56:06;;;;;;;14.15;9.43;;;2.50;91.10;;;;;;5052414;28;20032;-70
2021/12/03 18:01:33;;;;;;;14.48;9.60;;;2.50;90.90;;;;;;5041934;28;20025;-70
2021/12/03 18:04:07;;;;;;;13.77;9.15;;;2.40;90.90;;;;;;5051851;28;20041;-70
2021/12/03 18:09:32;;;;;;;13.77;9.30;;;2.40;91.00;;;;;;5052273;28;20036;-70
2021/12/03 18:45:22;;;;;;;17.88;14.02;;;2.30;91.60;;;;;;5029187;28;20033;-70
2021/12/03 18:51:12;;;;;;;18.98;13.50;;;2.30;91.60;;;;;;5051545;28;20383;-70
2021/12/03 18:56:00;;;;;;;21.20;14.93;;;2.30;91.70;;;;;;5051578;28;20074;-70
2021/12/03 18:58:28;;;;;;;20.98;14.38;;;2.30;91.60;;;;;;5051610;28;20017;-69
2021/12/03 19:00:56;;;;;;;19.52;14.05;;;2.30;91.60;;;;;;5051487;28;20051;-70
2021/12/03 19:09:04;;;;;;;21.90;16.13;;;2.40;91.60;;;;;;5051275;28;20020;-69
2021/12/03 19:11:16;;;;;;;21.77;15.95;;;2.30;91.60;;;;;;5047969;28;20488;-69
2021/12/03 19:13:42;;;;;;;21.42;15.70;;;2.30;91.40;;;;;;5051145;28;20025;-70
2021/12/03 19:16:11;;;;;;;25.00;18.52;;;2.30;91.50;;;;;;5051321;28;20032;-70
2021/12/03 19:18:38;;;;;;;25.50;19.02;;;2.30;91.50;;;;;;5049913;28;20037;-69
2021/12/03 19:21:09;;;;;;;27.73;19.50;;;2.20;91.50;;;;;;5049911;28;20040;-69
2021/12/03 19:23:34;;;;;;;24.13;16.98;;;2.30;91.80;;;;;;5049930;28;20155;-69
2021/12/03 19:26:00;;;;;;;28.20;20.08;;;2.30;91.60;;;;;;5050964;28;20175;-69
2021/12/03 19:28:26;;;;;;;28.17;19.58;;;2.20;91.60;;;;;;5051043;28;20530;-70
2021/12/03 19:30:54;;;;;;;27.38;19.88;;;2.30;91.60;;;;;;5051137;28;20115;-69
2021/12/03 19:33:20;;;;;;;27.38;19.15;;;2.20;91.60;;;;;;5050957;28;20029;-70
2021/12/03 19:35:46;;;;;;;27.63;19.67;;;2.30;91.60;;;;;;5051076;28;20108;-70
2021/12/03 19:38:14;;;;;;;29.90;21.17;;;2.20;91.70;;;;;;5051952;28;20024;-70
2021/12/03 19:40:46;;;;;;;32.78;22.08;;;2.30;91.50;;;;;;5055057;28;20028;-71
2021/12/03 19:43:15;;;;;;;28.73;20.50;;;2.30;91.50;;;;;;5054856;28;20112;-69
2021/12/03 19:45:50;;;;;;;32.28;21.05;;;2.20;91.50;;;;;;5054612;28;20029;-70
2021/12/03 19:48:16;;;;;;;27.98;19.70;;;2.20;91.50;;;;;;5054549;28;20052;-69
2021/12/03 19:50:44;;;;;;;28.70;20.10;;;2.20;91.30;;;;;;5054424;28;20067;-70
2021/12/03 19:53:16;;;;;;;30.00;20.83;;;2.20;91.30;;;;;;5054381;28;20041;-69
2021/12/03 19:55:44;;;;;;;33.40;22.30;;;2.20;91.30;;;;;;5054439;28;20024;-69
2021/12/03 19:58:12;;;;;;;33.03;21.88;;;2.20;91.40;;;;;;5053216;28;20025;-70
2021/12/03 20:00:39;;;;;;;32.85;21.63;;;2.10;91.20;;;;;;5054324;28;20020;-69
2021/12/03 20:03:05;;;;;;;32.65;21.77;;;2.20;91.20;;;;;;5054485;28;20024;-69
2021/12/03 20:05:32;;;;;;;33.55;21.75;;;2.10;91.10;;;;;;5054266;28;20082;-69
2021/12/03 20:08:00;;;;;;;32.72;21.25;;;2.10;91.00;;;;;;5053050;28;20535;-70
2021/12/03 20:10:27;;;;;;;32.47;21.52;;;2.10;90.90;;;;;;5054194;28;20127;-70
2021/12/03 20:12:54;;;;;;;33.13;20.92;;;2.10;90.80;;;;;;5054372;28;20067;-70
2021/12/03 20:18:28;;;;;;;32.95;21.13;;;2.10;90.60;;;;;;5054586;28;20079;-69
2021/12/03 20:20:56;;;;;;;30.10;19.73;;;2.00;90.50;;;;;;5054223;28;20025;-70
2021/12/03 20:23:40;;;;;;;30.45;20.27;;;2.00;90.60;;;;;;5054184;28;20095;-69
2021/12/03 20:28:42;;;;;;;30.33;19.33;;;2.00;90.80;;;;;;5070192;28;20058;-69